createdAt,value
2023-04-16T00:00:30.411Z,83.3072
2023-04-16T00:01:32.042Z,83.2853
2023-04-16T00:02:33.854Z,83.6521
2023-04-16T00:03:35.551Z,84.3672
2023-04-16T00:04:37.023Z,83.8062
2023-04-16T00:05:38.664Z,83.5883
2023-04-16T00:06:40.293Z,83.3174
2023-04-16T00:07:41.900Z,83.1991
2023-04-16T00:08:43.670Z,83.2790
2023-04-16T00:09:45.203Z,84.6667
2023-04-16T00:10:46.987Z,83.6419
2023-04-16T00:11:48.583Z,83.3638
2023-04-16T00:12:50.255Z,83.1222
2023-04-16T00:13:51.865Z,83.5406
2023-04-16T00:14:53.500Z,83.6807
2023-04-16T00:15:55.229Z,84.1042
2023-04-16T00:16:56.901Z,83.8976
2023-04-16T00:17:58.558Z,84.0294
2023-04-16T00:19:00.184Z,84.0540
2023-04-16T00:20:01.861Z,83.7631
2023-04-16T00:21:03.446Z,84.2165
2023-04-16T00:22:05.102Z,83.5798
2023-04-16T00:23:06.690Z,83.6849
2023-04-16T00:24:08.340Z,83.8496
2023-04-16T00:25:09.983Z,83.7282
2023-04-16T00:26:11.693Z,83.6619
2023-04-16T00:27:13.282Z,83.9511
2023-04-16T00:28:14.927Z,83.8271
2023-04-16T00:29:16.582Z,83.6759
2023-04-16T00:30:18.236Z,83.5077
2023-04-16T00:31:19.977Z,83.4853
2023-04-16T00:32:21.547Z,83.4264
2023-04-16T00:33:23.151Z,83.4998
2023-04-16T00:34:24.803Z,83.4597
2023-04-16T00:35:26.443Z,83.5223
2023-04-16T00:36:28.161Z,83.6075
2023-04-16T00:37:29.740Z,83.5289
2023-04-16T00:38:31.466Z,83.5288
2023-04-16T00:39:33.060Z,83.3684
2023-04-16T00:40:34.743Z,83.8223
2023-04-16T00:41:36.417Z,84.8654
2023-04-16T00:42:38.014Z,84.3548
2023-04-16T00:43:39.662Z,83.8089
2023-04-16T00:44:41.327Z,84.1732
2023-04-16T00:45:42.963Z,84.0122
2023-04-16T00:46:44.753Z,84.2541
2023-04-16T00:47:46.310Z,84.8195
2023-04-16T00:48:47.900Z,84.7852
2023-04-16T00:49:49.545Z,84.5856
2023-04-16T00:50:51.199Z,84.8923
2023-04-16T00:51:52.863Z,84.1712
2023-04-16T00:52:54.476Z,84.5826
2023-04-16T00:53:56.149Z,84.2142
2023-04-16T00:54:57.766Z,84.6603
2023-04-16T00:55:59.459Z,84.7089
2023-04-16T00:57:01.083Z,85.0121
2023-04-16T00:58:02.749Z,84.2739
2023-04-16T00:59:04.443Z,85.1126
2023-04-16T01:00:06.111Z,84.5268
2023-04-16T01:01:07.845Z,84.7417
2023-04-16T01:02:09.441Z,84.2378
2023-04-16T01:03:11.116Z,84.2321
2023-04-16T01:04:12.753Z,83.9672
2023-04-16T01:05:14.287Z,84.3438
2023-04-16T01:06:15.918Z,84.5647
2023-04-16T01:07:17.565Z,84.1857
2023-04-16T01:08:19.219Z,84.3699
2023-04-16T01:09:20.845Z,83.9520
2023-04-16T01:10:22.487Z,83.9860
2023-04-16T01:11:24.165Z,84.3511
2023-04-16T01:12:25.773Z,84.2794
2023-04-16T01:13:27.411Z,84.4487
2023-04-16T01:14:29.043Z,84.5073
2023-04-16T01:15:30.727Z,84.5783
2023-04-16T01:16:32.408Z,86.0972
2023-04-16T01:17:34.058Z,85.3621
2023-04-16T01:18:35.688Z,85.0713
2023-04-16T01:19:37.285Z,84.5940
2023-04-16T01:20:38.964Z,84.7336
2023-04-16T01:21:40.607Z,84.6443
2023-04-16T01:22:42.244Z,84.4425
2023-04-16T01:23:43.904Z,84.7470
2023-04-16T01:24:45.534Z,84.6046
2023-04-16T01:25:47.208Z,84.5575
2023-04-16T01:26:48.848Z,84.3373
2023-04-16T01:27:50.474Z,84.5568
2023-04-16T01:28:52.126Z,84.5563
2023-04-16T01:29:53.768Z,84.5635
2023-04-16T01:30:55.536Z,84.3238
2023-04-16T01:31:57.061Z,84.9640
2023-04-16T01:32:58.719Z,85.3608
2023-04-16T01:34:00.331Z,84.8823
2023-04-16T01:35:02.166Z,84.1911
2023-04-16T01:36:03.636Z,84.4334
2023-04-16T01:37:05.305Z,84.1023
2023-04-16T01:38:06.905Z,83.9346
2023-04-16T01:39:08.737Z,84.0310
2023-04-16T01:40:10.189Z,84.0730
2023-04-16T01:41:11.848Z,84.4305
2023-04-16T01:42:13.543Z,84.5220
2023-04-16T01:43:15.162Z,84.3542
2023-04-16T01:44:16.766Z,84.5649
2023-04-16T01:45:18.464Z,84.2857
2023-04-16T01:46:20.145Z,84.3198
2023-04-16T01:47:21.788Z,84.1939
2023-04-16T01:48:23.366Z,84.0909
2023-04-16T01:49:24.992Z,84.1973
2023-04-16T01:50:26.677Z,84.7085
2023-04-16T01:51:28.281Z,84.4258
2023-04-16T01:52:29.986Z,84.7371
2023-04-16T01:53:31.649Z,84.2607
2023-04-16T01:54:33.324Z,84.3025
2023-04-16T01:55:34.914Z,84.3252
2023-04-16T01:56:36.566Z,84.7101
2023-04-16T01:57:38.287Z,84.5893
2023-04-16T01:58:39.865Z,84.1978
2023-04-16T01:59:41.486Z,84.4298
2023-04-16T02:00:43.264Z,84.3874
2023-04-16T02:01:44.820Z,84.0868
2023-04-16T02:02:46.702Z,84.0157
2023-04-16T02:03:48.236Z,84.1837
2023-04-16T02:04:49.801Z,84.0379
2023-04-16T02:05:51.383Z,84.0530
2023-04-16T02:06:53.075Z,84.2954
2023-04-16T02:07:54.692Z,84.3961
2023-04-16T02:08:56.306Z,84.2658
2023-04-16T02:09:57.941Z,84.4804
2023-04-16T02:10:59.572Z,84.5890
2023-04-16T02:12:01.225Z,85.0067
2023-04-16T02:13:02.909Z,84.5098
2023-04-16T02:14:04.536Z,84.7057
2023-04-16T02:15:06.181Z,84.7731
2023-04-16T02:16:07.829Z,84.7031
2023-04-16T02:17:09.443Z,84.6929
2023-04-16T02:18:11.157Z,84.6952
2023-04-16T02:19:12.810Z,84.5551
2023-04-16T02:20:14.429Z,84.7076
2023-04-16T02:21:16.041Z,84.5252
2023-04-16T02:22:17.692Z,84.4800
2023-04-16T02:23:19.405Z,84.2643
2023-04-16T02:24:20.980Z,84.9642
2023-04-16T02:25:22.623Z,84.6357
2023-04-16T02:26:24.329Z,84.5805
2023-04-16T02:27:25.920Z,84.5987
2023-04-16T02:28:27.599Z,84.3634
2023-04-16T02:29:29.184Z,84.7085
2023-04-16T02:30:30.849Z,84.5460
2023-04-16T02:31:32.514Z,84.7985
2023-04-16T02:32:34.186Z,84.9951
2023-04-16T02:33:35.833Z,85.1930
2023-04-16T02:34:37.461Z,85.5324
2023-04-16T02:35:39.131Z,85.8341
2023-04-16T02:36:40.728Z,85.3405
2023-04-16T02:37:42.372Z,84.9983
2023-04-16T02:38:44.131Z,84.9558
2023-04-16T02:39:45.708Z,85.1811
2023-04-16T02:40:47.345Z,84.8235
2023-04-16T02:41:48.963Z,84.9974
2023-04-16T02:42:50.630Z,84.7342
2023-04-16T02:43:52.301Z,84.6169
2023-04-16T02:44:53.918Z,84.7102
2023-04-16T02:45:55.538Z,85.1349
2023-04-16T02:46:57.122Z,85.8910
2023-04-16T02:47:58.820Z,85.4982
2023-04-16T02:49:00.464Z,85.2253
2023-04-16T02:50:02.049Z,84.9866
2023-04-16T02:51:03.714Z,85.0421
2023-04-16T02:52:05.393Z,84.8564
2023-04-16T02:53:07.022Z,84.9122
2023-04-16T02:54:08.695Z,84.7547
2023-04-16T02:55:10.324Z,84.6369
2023-04-16T02:56:11.955Z,84.4482
2023-04-16T02:57:13.631Z,84.7717
2023-04-16T02:58:15.230Z,84.6748
2023-04-16T02:59:16.913Z,84.9602
2023-04-16T03:00:18.547Z,84.6022
2023-04-16T03:01:20.214Z,85.2566
2023-04-16T03:02:22.272Z,85.1075
2023-04-16T03:03:23.526Z,85.0044
2023-04-16T03:04:25.169Z,84.9035
2023-04-16T03:05:26.790Z,84.9308
2023-04-16T03:06:28.429Z,85.3259
2023-04-16T03:07:30.133Z,85.5333
2023-04-16T03:08:31.690Z,85.9459
2023-04-16T03:09:33.390Z,85.4921
2023-04-16T03:10:35.029Z,85.3775
2023-04-16T03:11:36.671Z,85.4894
2023-04-16T03:12:38.313Z,85.0531
2023-04-16T03:13:39.977Z,85.1865
2023-04-16T03:14:41.670Z,85.0600
2023-04-16T03:15:43.280Z,85.1775
2023-04-16T03:16:44.962Z,85.5584
2023-04-16T03:17:46.591Z,85.2646
2023-04-16T03:18:48.175Z,85.0683
2023-04-16T03:19:49.874Z,85.3766
2023-04-16T03:20:51.468Z,85.2104
2023-04-16T03:21:53.140Z,85.5262
2023-04-16T03:22:54.799Z,85.8981
2023-04-16T03:23:56.438Z,85.8007
2023-04-16T03:24:58.115Z,85.8379
2023-04-16T03:25:59.733Z,86.1639
2023-04-16T03:27:01.381Z,85.7627
2023-04-16T03:28:03.013Z,85.7916
2023-04-16T03:29:04.672Z,85.4768
2023-04-16T03:30:06.338Z,85.7282
2023-04-16T03:31:07.965Z,85.3363
2023-04-16T03:32:09.638Z,85.5403
2023-04-16T03:33:11.417Z,85.3941
2023-04-16T03:34:12.929Z,85.3542
2023-04-16T03:35:14.604Z,85.7870
2023-04-16T03:36:16.280Z,86.1204
2023-04-16T03:37:17.918Z,85.4348
2023-04-16T03:38:19.567Z,85.2094
2023-04-16T03:39:21.282Z,85.4863
2023-04-16T03:40:22.962Z,85.4846
2023-04-16T03:41:24.540Z,85.3695
2023-04-16T03:42:26.231Z,85.5212
2023-04-16T03:43:27.866Z,85.9825
2023-04-16T03:44:29.481Z,85.6038
2023-04-16T03:45:31.233Z,85.5489
2023-04-16T03:46:32.852Z,85.8003
2023-04-16T03:47:34.463Z,85.6661
2023-04-16T03:48:36.172Z,85.4618
2023-04-16T03:49:37.732Z,85.6822
2023-04-16T03:50:39.496Z,85.5754
2023-04-16T03:51:41.052Z,85.4353
2023-04-16T03:52:42.684Z,85.3577
2023-04-16T03:53:44.322Z,85.1700
2023-04-16T03:54:46.021Z,85.3594
2023-04-16T03:55:47.683Z,86.1877
2023-04-16T03:56:49.275Z,85.6748
2023-04-16T03:57:50.933Z,85.8509
2023-04-16T03:58:52.576Z,86.3233
2023-04-16T03:59:54.215Z,85.9311
2023-04-16T04:00:55.918Z,85.5316
2023-04-16T04:01:57.712Z,85.6416
2023-04-16T04:02:59.305Z,85.7719
2023-04-16T04:04:00.971Z,86.1239
2023-04-16T04:05:02.631Z,86.1170
2023-04-16T04:06:04.150Z,86.2466
2023-04-16T04:07:05.780Z,85.7654
2023-04-16T04:08:07.416Z,85.5448
2023-04-16T04:09:09.281Z,85.4803
2023-04-16T04:10:10.718Z,85.6434
2023-04-16T04:11:12.443Z,85.5109
2023-04-16T04:12:14.018Z,85.8993
2023-04-16T04:13:15.655Z,85.5427
2023-04-16T04:14:17.297Z,85.4664
2023-04-16T04:15:18.935Z,85.3511
2023-04-16T04:16:20.665Z,85.2113
2023-04-16T04:17:22.340Z,85.3262
2023-04-16T04:18:23.855Z,85.4194
2023-04-16T04:19:25.542Z,85.5457
2023-04-16T04:20:27.188Z,86.1488
2023-04-16T04:21:28.887Z,86.0285
2023-04-16T04:22:30.478Z,85.5092
2023-04-16T04:23:32.144Z,85.7990
2023-04-16T04:24:33.811Z,86.7452
2023-04-16T04:25:35.432Z,86.3692
2023-04-16T04:26:37.226Z,86.1511
2023-04-16T04:27:38.738Z,86.0219
2023-04-16T04:28:40.310Z,86.3820
2023-04-16T04:29:41.941Z,86.1980
2023-04-16T04:30:43.625Z,85.8608
2023-04-16T04:31:45.358Z,86.0575
2023-04-16T04:32:46.940Z,86.2602
2023-04-16T04:33:48.565Z,86.0979
2023-04-16T04:34:50.386Z,86.1121
2023-04-16T04:35:51.828Z,86.2925
2023-04-16T04:36:53.521Z,86.0975
2023-04-16T04:37:55.142Z,85.9922
2023-04-16T04:38:56.808Z,85.8955
2023-04-16T04:39:58.425Z,85.6810
2023-04-16T04:41:00.148Z,85.5650
2023-04-16T04:42:01.820Z,85.6575
2023-04-16T04:43:03.397Z,85.6227
2023-04-16T04:44:05.024Z,85.7333
2023-04-16T04:45:06.687Z,85.4745
2023-04-16T04:46:08.417Z,85.5914
2023-04-16T04:47:10.000Z,85.5287
2023-04-16T04:48:11.601Z,85.5093
2023-04-16T04:49:13.262Z,85.5160
2023-04-16T04:50:14.893Z,85.4621
2023-04-16T04:51:16.545Z,85.7420
2023-04-16T04:52:18.209Z,85.4955
2023-04-16T04:53:19.827Z,85.6246
2023-04-16T04:54:21.464Z,86.0526
2023-04-16T04:55:23.121Z,85.7461
2023-04-16T04:56:24.762Z,85.6800
2023-04-16T04:57:26.442Z,85.7428
2023-04-16T04:58:28.061Z,85.6132
2023-04-16T04:59:29.721Z,85.6678
2023-04-16T05:00:31.366Z,86.0959
2023-04-16T05:01:33.190Z,86.1261
2023-04-16T05:02:34.895Z,86.1608
2023-04-16T05:03:37.207Z,85.8976
2023-04-16T05:04:38.118Z,85.7139
2023-04-16T05:05:39.738Z,85.7447
2023-04-16T05:06:41.430Z,85.9353
2023-04-16T05:07:43.064Z,85.9390
2023-04-16T05:08:44.677Z,85.9199
2023-04-16T05:09:46.332Z,85.7382
2023-04-16T05:10:47.953Z,85.6582
2023-04-16T05:11:49.596Z,85.7255
2023-04-16T05:12:51.302Z,85.9952
2023-04-16T05:13:52.975Z,86.0104
2023-04-16T05:14:54.592Z,86.0941
2023-04-16T05:15:56.212Z,86.0569
2023-04-16T05:16:57.941Z,85.7647
2023-04-16T05:17:59.602Z,85.8171
2023-04-16T05:19:01.195Z,85.8525
2023-04-16T05:20:02.789Z,85.8103
2023-04-16T05:21:04.444Z,85.7346
2023-04-16T05:22:06.072Z,85.6767
2023-04-16T05:23:07.765Z,85.6179
2023-04-16T05:24:09.328Z,85.7159
2023-04-16T05:25:10.969Z,85.6828
2023-04-16T05:26:12.604Z,85.6315
2023-04-16T05:27:14.243Z,85.6035
2023-04-16T05:28:15.899Z,85.6026
2023-04-16T05:29:17.539Z,85.7427
2023-04-16T05:30:19.176Z,85.8106
2023-04-16T05:31:20.971Z,85.7363
2023-04-16T05:32:22.504Z,85.7383
2023-04-16T05:33:24.144Z,85.7805
2023-04-16T05:34:25.772Z,85.8638
2023-04-16T05:35:27.412Z,85.8569
2023-04-16T05:36:29.131Z,85.9486
2023-04-16T05:37:30.773Z,86.1710
2023-04-16T05:38:32.497Z,86.0216
2023-04-16T05:39:34.056Z,85.8689
2023-04-16T05:40:35.634Z,85.9848
2023-04-16T05:41:37.283Z,86.0415
2023-04-16T05:42:38.911Z,85.9821
2023-04-16T05:43:40.621Z,85.9571
2023-04-16T05:44:42.240Z,85.8765
2023-04-16T05:45:43.876Z,85.8470
2023-04-16T05:46:45.520Z,85.7193
2023-04-16T05:47:47.230Z,85.8786
2023-04-16T05:48:48.831Z,85.9976
2023-04-16T05:49:50.426Z,86.1915
2023-04-16T05:50:52.089Z,86.1975
2023-04-16T05:51:53.747Z,86.1604
2023-04-16T05:52:55.388Z,86.5167
2023-04-16T05:53:57.069Z,86.4164
2023-04-16T05:54:58.690Z,86.5188
2023-04-16T05:56:00.372Z,86.2767
2023-04-16T05:57:02.036Z,86.2294
2023-04-16T05:58:03.648Z,86.2949
2023-04-16T05:59:05.310Z,86.2247
2023-04-16T06:00:07.017Z,86.2198
2023-04-16T06:01:08.615Z,86.1080
2023-04-16T06:02:10.243Z,86.1648
2023-04-16T06:03:12.041Z,86.3574
2023-04-16T06:04:13.891Z,86.2996
2023-04-16T06:05:15.281Z,86.4329
2023-04-16T06:06:16.830Z,86.4128
2023-04-16T06:07:18.458Z,86.4259
2023-04-16T06:08:20.114Z,86.3803
2023-04-16T06:09:21.827Z,86.3001
2023-04-16T06:10:23.387Z,86.2916
2023-04-16T06:11:24.996Z,86.1906
2023-04-16T06:12:26.656Z,86.2441
2023-04-16T06:13:28.300Z,86.4260
2023-04-16T06:14:29.961Z,86.5568
2023-04-16T06:15:31.590Z,86.2908
2023-04-16T06:16:33.364Z,86.1501
2023-04-16T06:17:34.937Z,86.0895
2023-04-16T06:18:36.501Z,86.2152
2023-04-16T06:19:38.177Z,86.3622
2023-04-16T06:20:39.818Z,86.3604
2023-04-16T06:21:41.458Z,86.6176
2023-04-16T06:22:43.097Z,86.5155
2023-04-16T06:23:44.770Z,86.4718
2023-04-16T06:24:46.456Z,86.2420
2023-04-16T06:25:48.038Z,86.3933
2023-04-16T06:26:49.701Z,86.2503
2023-04-16T06:27:51.374Z,86.2683
2023-04-16T06:28:52.993Z,86.3150
2023-04-16T06:29:54.688Z,86.3797
2023-04-16T06:30:56.278Z,86.3495
2023-04-16T06:31:57.894Z,86.3165
2023-04-16T06:32:59.578Z,86.3096
2023-04-16T06:34:01.257Z,86.3157
2023-04-16T06:35:03.017Z,86.3968
2023-04-16T06:36:04.524Z,86.4287
2023-04-16T06:37:07.184Z,86.4557
2023-04-16T06:38:07.825Z,86.4543
2023-04-16T06:39:09.804Z,86.4649
2023-04-16T06:40:11.129Z,86.4973
2023-04-16T06:41:12.734Z,86.5469
2023-04-16T06:42:14.403Z,86.5692
2023-04-16T06:43:16.021Z,86.6663
2023-04-16T06:44:17.691Z,86.5365
2023-04-16T06:45:19.350Z,86.4905
2023-04-16T06:46:20.999Z,86.5847
2023-04-16T06:47:22.725Z,86.5505
2023-04-16T06:48:24.340Z,86.4721
2023-04-16T06:49:25.948Z,86.6934
2023-04-16T06:50:27.648Z,86.6446
2023-04-16T06:51:29.242Z,87.2318
2023-04-16T06:52:30.899Z,87.1879
2023-04-16T06:53:32.523Z,87.1013
2023-04-16T06:54:34.162Z,86.8464
2023-04-16T06:55:35.849Z,86.7961
2023-04-16T06:56:37.435Z,86.8465
2023-04-16T06:57:39.074Z,86.9830
2023-04-16T06:58:40.735Z,86.6798
2023-04-16T06:59:42.425Z,86.7792
2023-04-16T07:00:44.141Z,86.6065
2023-04-16T07:01:45.723Z,86.7450
2023-04-16T07:02:47.512Z,86.8621
2023-04-16T07:03:49.206Z,86.7674
2023-04-16T07:04:50.599Z,86.8114
2023-04-16T07:05:52.280Z,86.7743
2023-04-16T07:06:53.885Z,87.1364
2023-04-16T07:07:55.513Z,87.0051
2023-04-16T07:08:57.185Z,87.0037
2023-04-16T07:09:58.814Z,87.3565
2023-04-16T07:11:00.486Z,87.4718
2023-04-16T07:12:02.090Z,87.3070
2023-04-16T07:13:03.750Z,87.2727
2023-04-16T07:14:05.394Z,87.1230
2023-04-16T07:15:07.025Z,86.9086
2023-04-16T07:16:08.793Z,86.8461
2023-04-16T07:17:10.364Z,86.8196
2023-04-16T07:18:12.005Z,86.8485
2023-04-16T07:19:13.608Z,86.7130
2023-04-16T07:20:15.272Z,86.8614
2023-04-16T07:21:16.951Z,86.7892
2023-04-16T07:22:18.581Z,87.2867
2023-04-16T07:23:20.201Z,87.0578
2023-04-16T07:24:21.860Z,86.8924
2023-04-16T07:25:23.548Z,86.6714
2023-04-16T07:26:25.173Z,86.6487
2023-04-16T07:27:26.787Z,86.6352
2023-04-16T07:28:28.514Z,86.6631
2023-04-16T07:29:30.108Z,86.6771
2023-04-16T07:30:31.710Z,86.7441
2023-04-16T07:31:33.348Z,86.7235
2023-04-16T07:32:35.038Z,86.6216
2023-04-16T07:33:36.566Z,87.2176
2023-04-16T07:34:38.317Z,86.9836
2023-04-16T07:35:39.862Z,86.7987
2023-04-16T07:36:41.549Z,86.8258
2023-04-16T07:37:43.150Z,86.7675
2023-04-16T07:38:44.829Z,86.7499
2023-04-16T07:39:46.465Z,86.6667
2023-04-16T07:40:48.094Z,86.6960
2023-04-16T07:41:49.803Z,86.6937
2023-04-16T07:42:51.391Z,86.6016
2023-04-16T07:43:53.038Z,86.6940
2023-04-16T07:44:54.695Z,86.8151
2023-04-16T07:45:56.468Z,86.6100
2023-04-16T07:46:58.111Z,86.6984
2023-04-16T07:47:59.880Z,87.2634
2023-04-16T07:49:01.296Z,87.2438
2023-04-16T07:50:02.908Z,86.8350
2023-04-16T07:51:04.593Z,86.7473
2023-04-16T07:52:06.231Z,86.6574
2023-04-16T07:53:07.930Z,86.6966
2023-04-16T07:54:09.502Z,86.6184
2023-04-16T07:55:11.156Z,86.5989
2023-04-16T07:56:12.798Z,86.5640
2023-04-16T07:57:14.463Z,86.5640
2023-04-16T07:58:16.106Z,86.5566
2023-04-16T07:59:23.352Z,86.6588
2023-04-16T08:00:19.384Z,87.1701
2023-04-16T08:01:21.009Z,87.3537
2023-04-16T08:02:22.828Z,86.8562
2023-04-16T08:03:24.636Z,86.8225
2023-04-16T08:04:26.536Z,86.8622
2023-04-16T08:05:27.599Z,86.8904
2023-04-16T08:06:29.222Z,87.0539
2023-04-16T08:07:31.920Z,86.8852
2023-04-16T08:08:32.514Z,86.6792
2023-04-16T08:09:34.178Z,86.8708
2023-04-16T08:10:35.821Z,86.7489
2023-04-16T08:11:37.465Z,86.8508
2023-04-16T08:12:39.131Z,87.2668
2023-04-16T08:13:40.744Z,87.0926
2023-04-16T08:14:42.382Z,86.9553
2023-04-16T08:15:44.062Z,87.0884
2023-04-16T08:16:45.735Z,86.8790
2023-04-16T08:17:47.403Z,86.7816
2023-04-16T08:18:49.172Z,86.6876
2023-04-16T08:19:50.645Z,86.6478
2023-04-16T08:20:52.281Z,86.7785
2023-04-16T08:21:53.900Z,86.7114
2023-04-16T08:22:55.608Z,86.5748
2023-04-16T08:23:57.269Z,86.6663
2023-04-16T08:24:58.864Z,86.7085
2023-04-16T08:26:00.463Z,86.6683
2023-04-16T08:27:11.448Z,86.6721
2023-04-16T08:28:03.816Z,86.7615
2023-04-16T08:29:05.414Z,86.7879
2023-04-16T08:30:07.680Z,86.9828
2023-04-16T08:31:08.783Z,87.2876
2023-04-16T08:32:10.418Z,87.2116
2023-04-16T08:33:12.124Z,87.0720
2023-04-16T08:34:13.681Z,87.1885
2023-04-16T08:35:15.321Z,87.0404
2023-04-16T08:36:16.957Z,87.0927
2023-04-16T08:37:18.608Z,87.1659
2023-04-16T08:38:20.282Z,87.2127
2023-04-16T08:39:21.923Z,87.1535
2023-04-16T08:40:23.520Z,87.0877
2023-04-16T08:41:25.171Z,87.1159
2023-04-16T08:42:26.878Z,87.1317
2023-04-16T08:43:28.481Z,87.2060
2023-04-16T08:44:30.101Z,87.2312
2023-04-16T08:45:31.743Z,87.1564
2023-04-16T08:46:33.423Z,87.0728
2023-04-16T08:47:35.057Z,87.0006
2023-04-16T08:48:36.707Z,87.0018
2023-04-16T08:49:38.308Z,87.0939
2023-04-16T08:50:39.954Z,87.0486
2023-04-16T08:51:41.605Z,87.1378
2023-04-16T08:52:43.256Z,87.2709
2023-04-16T08:53:44.927Z,87.4017
2023-04-16T08:54:46.527Z,87.2358
2023-04-16T08:55:48.192Z,87.2903
2023-04-16T08:56:49.822Z,87.2456
2023-04-16T08:57:51.464Z,87.2087
2023-04-16T08:58:53.154Z,87.1859
2023-04-16T08:59:54.762Z,87.2896
2023-04-16T09:00:56.405Z,87.1856
2023-04-16T09:01:58.249Z,87.0676
2023-04-16T09:02:59.777Z,86.9822
2023-04-16T09:04:01.685Z,87.1659
2023-04-16T09:05:03.127Z,87.2621
2023-04-16T09:06:04.686Z,87.4207
2023-04-16T09:07:06.347Z,87.6684
2023-04-16T09:08:08.006Z,87.4421
2023-04-16T09:09:10.095Z,87.3445
2023-04-16T09:10:11.298Z,87.3232
2023-04-16T09:11:12.952Z,87.2564
2023-04-16T09:12:14.553Z,87.2237
2023-04-16T09:13:16.195Z,87.2917
2023-04-16T09:14:17.878Z,87.3401
2023-04-16T09:15:19.461Z,87.2924
2023-04-16T09:16:21.099Z,87.2958
2023-04-16T09:17:22.796Z,87.3055
2023-04-16T09:18:24.345Z,87.2651
2023-04-16T09:19:26.052Z,87.1873
2023-04-16T09:20:27.661Z,87.2266
2023-04-16T09:21:29.289Z,87.2660
2023-04-16T09:22:30.898Z,87.2457
2023-04-16T09:23:32.576Z,87.2388
2023-04-16T09:24:34.218Z,87.1601
2023-04-16T09:25:35.836Z,87.1098
2023-04-16T09:26:37.474Z,87.0572
2023-04-16T09:27:39.160Z,87.0699
2023-04-16T09:28:40.756Z,87.0166
2023-04-16T09:29:42.447Z,86.9083
2023-04-16T09:30:44.055Z,86.9179
2023-04-16T09:31:45.742Z,86.8108
2023-04-16T09:32:47.367Z,86.7770
2023-04-16T09:33:48.996Z,86.8281
2023-04-16T09:34:50.696Z,86.8167
2023-04-16T09:35:52.301Z,86.8330
2023-04-16T09:36:53.954Z,87.0284
2023-04-16T09:37:55.584Z,87.1307
2023-04-16T09:38:57.844Z,87.1317
2023-04-16T09:39:58.900Z,87.0992
2023-04-16T09:41:00.503Z,87.1460
2023-04-16T09:42:02.361Z,87.1574
2023-04-16T09:43:03.778Z,87.1262
2023-04-16T09:44:05.523Z,87.0960
2023-04-16T09:45:07.079Z,87.1163
2023-04-16T09:46:08.836Z,87.1096
2023-04-16T09:47:10.348Z,87.0206
2023-04-16T09:48:12.003Z,86.9804
2023-04-16T09:49:13.626Z,86.8563
2023-04-16T09:50:17.722Z,86.9276
2023-04-16T09:51:16.911Z,86.9446
2023-04-16T09:52:18.715Z,86.8308
2023-04-16T09:53:20.207Z,86.7370
2023-04-16T09:54:21.875Z,86.6541
2023-04-16T09:55:23.542Z,86.6178
2023-04-16T09:56:25.132Z,86.6406
2023-04-16T09:57:26.807Z,86.6408
2023-04-16T09:58:28.438Z,86.6538
2023-04-16T09:59:30.199Z,86.7627
2023-04-16T10:00:31.829Z,86.7372
2023-04-16T10:01:33.407Z,86.7633
2023-04-16T10:02:35.077Z,86.7904
2023-04-16T10:03:37.021Z,86.8315
2023-04-16T10:04:38.349Z,86.7876
2023-04-16T10:05:39.986Z,86.7365
2023-04-16T10:06:41.595Z,86.8204
2023-04-16T10:07:43.260Z,86.8938
2023-04-16T10:08:44.892Z,86.9301
2023-04-16T10:09:46.529Z,86.8878
2023-04-16T10:10:48.232Z,87.0103
2023-04-16T10:11:49.810Z,87.0600
2023-04-16T10:12:51.478Z,87.1890
2023-04-16T10:13:53.181Z,87.1406
2023-04-16T10:14:54.822Z,87.2801
2023-04-16T10:15:56.536Z,87.1962
2023-04-16T10:16:58.129Z,86.9756
2023-04-16T10:17:59.846Z,86.9690
2023-04-16T10:19:01.446Z,86.9526
2023-04-16T10:20:03.051Z,87.0219
2023-04-16T10:21:04.728Z,87.1343
2023-04-16T10:22:06.398Z,87.0071
2023-04-16T10:23:07.991Z,86.9573
2023-04-16T10:24:09.638Z,86.9268
2023-04-16T10:25:11.362Z,86.9382
2023-04-16T10:26:12.986Z,87.1294
2023-04-16T10:27:14.558Z,87.1532
2023-04-16T10:28:16.199Z,87.2132
2023-04-16T10:29:17.854Z,87.2429
2023-04-16T10:30:19.497Z,87.2599
2023-04-16T10:31:21.253Z,87.2915
2023-04-16T10:32:22.822Z,87.2982
2023-04-16T10:33:24.417Z,87.3577
2023-04-16T10:34:26.039Z,87.4682
2023-04-16T10:35:27.771Z,87.4828
2023-04-16T10:36:29.389Z,87.5343
2023-04-16T10:37:30.974Z,87.5220
2023-04-16T10:38:32.658Z,87.5309
2023-04-16T10:39:34.253Z,87.5218
2023-04-16T10:40:35.935Z,87.6680
2023-04-16T10:41:37.670Z,87.7819
2023-04-16T10:42:39.180Z,87.6330
2023-04-16T10:43:40.838Z,87.5992
2023-04-16T10:44:45.229Z,87.6920
2023-04-16T10:45:44.120Z,87.7768
2023-04-16T10:46:45.809Z,87.8260
2023-04-16T10:47:47.463Z,87.8096
2023-04-16T10:48:50.652Z,87.9497
2023-04-16T10:49:50.694Z,87.8781
2023-04-16T10:50:52.314Z,87.9788
2023-04-16T10:51:54.011Z,87.9476
2023-04-16T10:52:55.595Z,87.9460
2023-04-16T10:53:57.251Z,87.9738
2023-04-16T10:54:58.918Z,88.1034
2023-04-16T10:56:00.509Z,88.0419
2023-04-16T10:57:03.773Z,88.0969
2023-04-16T10:58:03.881Z,88.0807
2023-04-16T10:59:05.426Z,87.9780
2023-04-16T11:00:07.085Z,87.7752
2023-04-16T11:01:08.709Z,87.7954
2023-04-16T11:02:10.583Z,87.7078
2023-04-16T11:03:12.125Z,87.7675
2023-04-16T11:04:13.713Z,87.7620
2023-04-16T11:05:15.267Z,87.6209
2023-04-16T11:06:16.899Z,87.5612
2023-04-16T11:07:18.576Z,87.4167
2023-04-16T11:08:20.107Z,87.7840
2023-04-16T11:09:21.708Z,87.7821
2023-04-16T11:10:23.387Z,87.5970
2023-04-16T11:11:25.242Z,87.4495
2023-04-16T11:12:26.674Z,87.3532
2023-04-16T11:13:28.292Z,87.2884
2023-04-16T11:14:29.911Z,87.1568
2023-04-16T11:15:31.529Z,87.2956
2023-04-16T11:16:33.356Z,87.3498
2023-04-16T11:17:34.901Z,87.4003
2023-04-16T11:18:36.492Z,87.3112
2023-04-16T11:19:38.122Z,87.2081
2023-04-16T11:20:39.757Z,87.2651
2023-04-16T11:21:41.398Z,87.2766
2023-04-16T11:22:43.048Z,87.2487
2023-04-16T11:23:44.692Z,87.1356
2023-04-16T11:24:46.354Z,87.3728
2023-04-16T11:25:47.990Z,87.5199
2023-04-16T11:26:49.622Z,87.4571
2023-04-16T11:27:51.325Z,87.3730
2023-04-16T11:28:52.915Z,87.3349
2023-04-16T11:29:54.555Z,87.3239
2023-04-16T11:30:56.238Z,87.4624
2023-04-16T11:31:57.836Z,87.2447
2023-04-16T11:32:59.555Z,87.1008
2023-04-16T11:34:01.142Z,86.9900
2023-04-16T11:35:02.794Z,86.8432
2023-04-16T11:36:04.424Z,86.8559
2023-04-16T11:37:06.092Z,86.9004
2023-04-16T11:38:07.805Z,86.8590
2023-04-16T11:39:09.632Z,86.8129
2023-04-16T11:40:10.995Z,86.8587
2023-04-16T11:41:12.630Z,86.8670
2023-04-16T11:42:14.376Z,86.7648
2023-04-16T11:43:15.942Z,86.8621
2023-04-16T11:44:17.704Z,86.8506
2023-04-16T11:45:19.246Z,86.8468
2023-04-16T11:46:27.466Z,86.9112
2023-04-16T11:47:22.586Z,86.8702
2023-04-16T11:48:24.162Z,86.7766
2023-04-16T11:49:25.763Z,86.7346
2023-04-16T11:50:27.431Z,86.7013
2023-04-16T11:51:29.044Z,86.7412
2023-04-16T11:52:30.707Z,86.7318
2023-04-16T11:53:32.378Z,86.6994
2023-04-16T11:54:34.006Z,86.7432
2023-04-16T11:55:35.632Z,86.7175
2023-04-16T11:56:37.293Z,86.7574
2023-04-16T11:57:38.906Z,86.8109
2023-04-16T11:58:42.445Z,86.8318
2023-04-16T12:00:02.610Z,86.8788
2023-04-16T12:00:43.866Z,86.9532
2023-04-16T12:01:45.532Z,86.9587
2023-04-16T12:02:47.280Z,86.9094
2023-04-16T12:03:49.073Z,86.8143
2023-04-16T12:04:50.511Z,86.8217
2023-04-16T12:05:52.158Z,86.8018
2023-04-16T12:06:53.705Z,86.7785
2023-04-16T12:07:55.310Z,86.8151
2023-04-16T12:08:56.994Z,86.8937
2023-04-16T12:09:58.598Z,86.8872
2023-04-16T12:11:00.251Z,86.9557
2023-04-16T12:12:01.874Z,87.0270
2023-04-16T12:13:03.575Z,87.0431
2023-04-16T12:14:05.182Z,87.0970
2023-04-16T12:15:06.778Z,87.2212
2023-04-16T12:16:08.447Z,87.1778
2023-04-16T12:17:10.398Z,87.1885
2023-04-16T12:18:11.791Z,87.2392
2023-04-16T12:19:13.502Z,87.2424
2023-04-16T12:20:14.996Z,87.2814
2023-04-16T12:21:16.659Z,87.2933
2023-04-16T12:22:18.276Z,87.3968
2023-04-16T12:23:20.190Z,87.3512
2023-04-16T12:24:21.625Z,87.3417
2023-04-16T12:25:23.196Z,87.2925